createdAt,value
2023-04-18T00:00:39.560Z,21.1
2023-04-18T00:15:39.563Z,22.6
2023-04-18T00:30:40.528Z,21.3
2023-04-18T00:45:41.517Z,28.3
2023-04-18T01:00:41.450Z,26.6
2023-04-18T01:01:26.412Z,24.7
2023-04-18T01:15:42.622Z,26.4
2023-04-18T01:30:43.005Z,25.3
2023-04-18T01:45:43.904Z,25.6
2023-04-18T02:00:44.977Z,32.9
2023-04-18T02:15:45.355Z,35.1
2023-04-18T02:30:45.648Z,25.7
2023-04-18T02:45:47.203Z,24.2
2023-04-18T03:00:46.969Z,23.2
2023-04-18T03:15:48.230Z,28.6
2023-04-18T03:30:48.484Z,26.4
2023-04-18T03:45:49.749Z,23.9
2023-04-18T04:00:49.933Z,28.1
2023-04-18T04:15:51.376Z,33.6
2023-04-18T04:24:16.412Z,32.6
2023-04-18T04:39:16.683Z,30.6
2023-04-18T04:54:17.295Z,29.4
2023-04-18T05:09:17.130Z,40.5
2023-04-18T05:24:18.408Z,33.6
2023-04-18T05:39:18.648Z,28.1
2023-04-18T05:54:20.498Z,22.4
2023-04-18T06:09:25.858Z,21.1
2023-04-18T06:24:22.674Z,22.5
2023-04-18T06:39:21.941Z,20.6
2023-04-18T06:54:28.922Z,18
2023-04-18T07:09:23.071Z,14.9
2023-04-18T07:24:23.745Z,14.7
2023-04-18T07:39:24.719Z,13.7
2023-04-18T07:54:25.025Z,11.3
2023-04-18T08:09:26.211Z,12.9
2023-04-18T08:24:26.934Z,11.7
2023-04-18T08:39:27.221Z,12.2
2023-04-18T08:54:32.083Z,11
2023-04-18T09:09:29.098Z,9.7
2023-04-18T09:24:28.680Z,8.6
2023-04-18T09:39:30.123Z,9.8
2023-04-18T09:54:30.663Z,8.6
2023-04-18T10:09:31.476Z,10.7
2023-04-18T10:24:32.083Z,9
2023-04-18T10:39:32.461Z,8
2023-04-18T10:54:36.132Z,7.2
2023-04-18T11:09:33.557Z,7.2
2023-04-18T11:24:34.953Z,6.4
2023-04-18T11:39:35.571Z,6.7
2023-04-18T11:54:36.066Z,7.8
2023-04-18T12:09:36.422Z,6.9
2023-04-18T12:24:36.985Z,8.2
2023-04-18T12:39:37.729Z,9.7
2023-04-18T12:54:38.222Z,7.9
2023-04-18T13:09:38.319Z,16.4
2023-04-18T13:24:38.878Z,9.5
2023-04-18T13:39:39.912Z,11.2
2023-04-18T13:54:40.002Z,8.2
2023-04-18T14:09:40.803Z,7.4
2023-04-18T14:24:41.837Z,6.4
2023-04-18T14:39:41.793Z,7
2023-04-18T14:54:42.741Z,6.9
2023-04-18T15:09:43.386Z,7.1
2023-04-18T15:24:48.553Z,7.5
2023-04-18T15:39:45.142Z,7.9
2023-04-18T15:54:45.492Z,7.4
2023-04-18T16:09:46.314Z,6.1
2023-04-18T16:24:46.909Z,7.2
2023-04-18T16:39:48.471Z,7.9
2023-04-18T16:54:47.782Z,8.2
2023-04-18T17:09:48.933Z,7.2
2023-04-18T17:24:55.542Z,11.3
2023-04-18T17:39:50.042Z,8.5
2023-04-18T17:54:53.013Z,8.6
2023-04-18T18:09:52.006Z,9.4
2023-04-18T18:24:52.466Z,10.6
2023-04-18T18:39:54.430Z,9.3
2023-04-18T18:54:52.642Z,9.7
2023-04-18T19:24:53.954Z,10.6
2023-04-18T19:39:57.024Z,14.4
2023-04-18T19:54:54.257Z,11.9
2023-04-18T20:09:55.925Z,10.2
2023-04-18T20:24:55.820Z,13
2023-04-18T20:39:55.987Z,13.7
2023-04-18T20:54:58.046Z,13.9
2023-04-18T21:09:57.771Z,17.5
2023-04-18T21:24:59.796Z,16
2023-04-18T21:39:59.008Z,14.8
2023-04-18T21:55:00.588Z,15.9
2023-04-18T22:00:35.647Z,13.4
2023-04-18T22:15:35.632Z,15.1
2023-04-18T22:30:39.033Z,18.6
2023-04-18T22:45:36.432Z,15.6
2023-04-18T23:00:39.220Z,13.4
2023-04-18T23:15:46.731Z,18.5
2023-04-18T23:30:39.341Z,15.8
2023-04-18T23:45:46.207Z,17.4
